sensor_id;sensor_type;location;lat;lon;timestamp;pressure;altitude;pressure_sealevel;temperature;humidity
10606;BME280;5350;42.698;23.148;2023-09-19T00:01:32;94046.34;;;14.47;100.00
10606;BME280;5350;42.698;23.148;2023-09-19T00:04:00;94035.22;;;14.36;100.00
10606;BME280;5350;42.698;23.148;2023-09-19T00:06:29;94050.84;;;14.24;100.00
10606;BME280;5350;42.698;23.148;2023-09-19T00:08:57;94051.75;;;14.19;100.00
10606;BME280;5350;42.698;23.148;2023-09-19T00:11:25;94054.97;;;14.30;100.00
10606;BME280;5350;42.698;23.148;2023-09-19T00:13:52;94041.31;;;14.36;100.00
10606;BME280;5350;42.698;23.148;2023-09-19T00:16:20;94043.28;;;14.31;100.00
10606;BME280;5350;42.698;23.148;2023-09-19T00:18:47;94039.66;;;14.27;100.00
10606;BME280;5350;42.698;23.148;2023-09-19T00:21:16;94029.19;;;14.22;100.00
10606;BME280;5350;42.698;23.148;2023-09-19T00:23:44;94039.78;;;14.22;100.00
10606;BME280;5350;42.698;23.148;2023-09-19T00:26:11;94024.97;;;14.21;100.00
10606;BME280;5350;42.698;23.148;2023-09-19T00:28:38;94028.72;;;14.20;100.00
10606;BME280;5350;42.698;23.148;2023-09-19T00:31:07;94029.44;;;14.12;100.00
10606;BME280;5350;42.698;23.148;2023-09-19T00:33:35;94024.75;;;14.09;100.00
10606;BME280;5350;42.698;23.148;2023-09-19T00:36:02;94035.09;;;14.19;100.00
10606;BME280;5350;42.698;23.148;2023-09-19T00:38:32;94033.16;;;14.11;100.00
10606;BME280;5350;42.698;23.148;2023-09-19T00:40:58;94036.69;;;14.06;100.00
10606;BME280;5350;42.698;23.148;2023-09-19T00:43:26;94025.94;;;14.03;100.00
10606;BME280;5350;42.698;23.148;2023-09-19T00:45:54;94029.47;;;13.98;100.00
10606;BME280;5350;42.698;23.148;2023-09-19T00:48:22;94022.81;;;14.01;100.00
10606;BME280;5350;42.698;23.148;2023-09-19T00:50:50;94028.47;;;14.08;100.00
10606;BME280;5350;42.698;23.148;2023-09-19T00:53:21;94023.00;;;14.04;100.00
10606;BME280;5350;42.698;23.148;2023-09-19T00:55:50;94018.50;;;14.05;100.00
10606;BME280;5350;42.698;23.148;2023-09-19T00:58:18;94028.47;;;14.08;100.00
10606;BME280;5350;42.698;23.148;2023-09-19T01:00:45;94024.75;;;14.09;100.00
10606;BME280;5350;42.698;23.148;2023-09-19T01:03:11;94030.50;;;14.11;100.00
10606;BME280;5350;42.698;23.148;2023-09-19T01:05:39;94022.41;;;14.07;100.00
10606;BME280;5350;42.698;23.148;2023-09-19T01:08:07;94028.28;;;14.04;100.00
10606;BME280;5350;42.698;23.148;2023-09-19T01:10:37;94029.06;;;14.05;100.00
10606;BME280;5350;42.698;23.148;2023-09-19T01:13:13;94035.31;;;14.09;100.00
10606;BME280;5350;42.698;23.148;2023-09-19T01:15:49;94039.72;;;14.13;100.00
10606;BME280;5350;42.698;23.148;2023-09-19T01:18:25;94037.91;;;14.00;100.00
10606;BME280;5350;42.698;23.148;2023-09-19T01:21:00;94033.97;;;13.98;100.00
10606;BME280;5350;42.698;23.148;2023-09-19T01:26:31;94034.66;;;14.03;100.00
10606;BME280;5350;42.698;23.148;2023-09-19T01:29:23;94026.19;;;13.93;100.00
10606;BME280;5350;42.698;23.148;2023-09-19T01:31:57;94027.72;;;13.94;100.00
10606;BME280;5350;42.698;23.148;2023-09-19T01:34:26;94030.09;;;13.95;100.00
10606;BME280;5350;42.698;23.148;2023-09-19T01:36:53;94038.25;;;13.85;100.00
10606;BME280;5350;42.698;23.148;2023-09-19T01:39:20;94033.97;;;13.76;100.00
10606;BME280;5350;42.698;23.148;2023-09-19T01:42:05;94034.94;;;13.80;100.00
10606;BME280;5350;42.698;23.148;2023-09-19T01:44:41;94030.34;;;13.72;100.00
10606;BME280;5350;42.698;23.148;2023-09-19T01:47:18;94036.03;;;13.79;100.00
10606;BME280;5350;42.698;23.148;2023-09-19T01:49:53;94038.69;;;13.79;100.00
10606;BME280;5350;42.698;23.148;2023-09-19T01:52:27;94028.78;;;13.71;100.00
10606;BME280;5350;42.698;23.148;2023-09-19T01:54:59;94034.50;;;13.64;100.00
10606;BME280;5350;42.698;23.148;2023-09-19T01:57:35;94031.06;;;13.63;100.00
10606;BME280;5350;42.698;23.148;2023-09-19T02:00:10;94024.69;;;13.64;100.00
10606;BME280;5350;42.698;23.148;2023-09-19T02:02:42;94020.81;;;13.62;100.00
10606;BME280;5350;42.698;23.148;2023-09-19T02:05:10;94017.16;;;13.58;100.00
10606;BME280;5350;42.698;23.148;2023-09-19T02:07:38;94025.78;;;13.63;100.00
10606;BME280;5350;42.698;23.148;2023-09-19T02:10:06;94014.31;;;13.68;100.00
10606;BME280;5350;42.698;23.148;2023-09-19T02:12:35;94016.13;;;13.81;100.00
10606;BME280;5350;42.698;23.148;2023-09-19T02:15:02;94024.59;;;13.70;100.00
10606;BME280;5350;42.698;23.148;2023-09-19T02:17:32;94026.25;;;13.66;100.00
10606;BME280;5350;42.698;23.148;2023-09-19T02:20:00;94026.63;;;13.73;100.00
10606;BME280;5350;42.698;23.148;2023-09-19T02:22:27;94023.19;;;13.36;100.00
10606;BME280;5350;42.698;23.148;2023-09-19T02:24:55;94019.66;;;13.27;100.00
10606;BME280;5350;42.698;23.148;2023-09-19T02:27:24;94019.25;;;13.47;100.00
10606;BME280;5350;42.698;23.148;2023-09-19T02:29:50;94020.16;;;13.43;100.00
10606;BME280;5350;42.698;23.148;2023-09-19T02:32:17;94012.72;;;13.31;100.00
10606;BME280;5350;42.698;23.148;2023-09-19T02:34:44;94001.47;;;13.26;100.00
10606;BME280;5350;42.698;23.148;2023-09-19T02:37:12;94005.28;;;13.33;100.00
10606;BME280;5350;42.698;23.148;2023-09-19T02:39:41;94002.75;;;13.28;100.00
10606;BME280;5350;42.698;23.148;2023-09-19T02:42:08;93994.34;;;13.26;100.00
10606;BME280;5350;42.698;23.148;2023-09-19T02:44:35;93996.00;;;13.22;100.00
10606;BME280;5350;42.698;23.148;2023-09-19T02:47:03;93984.63;;;13.35;100.00
10606;BME280;5350;42.698;23.148;2023-09-19T02:49:30;93995.59;;;13.29;100.00
10606;BME280;5350;42.698;23.148;2023-09-19T02:51:57;93990.69;;;13.36;100.00
10606;BME280;5350;42.698;23.148;2023-09-19T02:54:26;93988.75;;;13.28;100.00
10606;BME280;5350;42.698;23.148;2023-09-19T02:56:53;93986.19;;;13.36;100.00
10606;BME280;5350;42.698;23.148;2023-09-19T02:59:20;93981.50;;;13.33;100.00
10606;BME280;5350;42.698;23.148;2023-09-19T03:01:47;93983.97;;;13.16;100.00
10606;BME280;5350;42.698;23.148;2023-09-19T03:04:14;93978.59;;;12.94;100.00
10606;BME280;5350;42.698;23.148;2023-09-19T03:06:45;93984.25;;;12.88;100.00
10606;BME280;5350;42.698;23.148;2023-09-19T03:09:11;93985.03;;;12.88;100.00
10606;BME280;5350;42.698;23.148;2023-09-19T03:11:40;93982.69;;;12.87;100.00
10606;BME280;5350;42.698;23.148;2023-09-19T03:14:07;93982.69;;;13.00;100.00
10606;BME280;5350;42.698;23.148;2023-09-19T03:16:34;93983.28;;;12.97;100.00
10606;BME280;5350;42.698;23.148;2023-09-19T03:19:02;93975.66;;;12.82;100.00
10606;BME280;5350;42.698;23.148;2023-09-19T03:21:30;93980.56;;;12.89;100.00
10606;BME280;5350;42.698;23.148;2023-09-19T03:23:57;93974.00;;;12.86;100.00
10606;BME280;5350;42.698;23.148;2023-09-19T03:26:24;93974.56;;;12.83;100.00
10606;BME280;5350;42.698;23.148;2023-09-19T03:28:53;93975.97;;;12.80;100.00
10606;BME280;5350;42.698;23.148;2023-09-19T03:31:20;93976.94;;;12.84;100.00
10606;BME280;5350;42.698;23.148;2023-09-19T03:33:46;93988.25;;;12.85;100.00
10606;BME280;5350;42.698;23.148;2023-09-19T03:36:13;93984.47;;;12.91;100.00
10606;BME280;5350;42.698;23.148;2023-09-19T03:38:40;93985.63;;;13.12;100.00
10606;BME280;5350;42.698;23.148;2023-09-19T03:41:06;93998.25;;;13.15;100.00
10606;BME280;5350;42.698;23.148;2023-09-19T03:43:33;93990.72;;;12.95;100.00
10606;BME280;5350;42.698;23.148;2023-09-19T03:46:02;93993.16;;;12.92;100.00
10606;BME280;5350;42.698;23.148;2023-09-19T03:48:30;93990.41;;;12.97;100.00
10606;BME280;5350;42.698;23.148;2023-09-19T03:50:57;93996.19;;;12.85;100.00
10606;BME280;5350;42.698;23.148;2023-09-19T03:53:24;94001.38;;;12.90;100.00
10606;BME280;5350;42.698;23.148;2023-09-19T03:55:51;94001.56;;;12.94;100.00
10606;BME280;5350;42.698;23.148;2023-09-19T03:58:17;94009.69;;;12.97;100.00
10606;BME280;5350;42.698;23.148;2023-09-19T04:00:44;94005.09;;;13.03;100.00
10606;BME280;5350;42.698;23.148;2023-09-19T04:03:12;94007.06;;;12.97;100.00
10606;BME280;5350;42.698;23.148;2023-09-19T04:05:44;94005.97;;;12.98;100.00
10606;BME280;5350;42.698;23.148;2023-09-19T04:08:12;94005.69;;;13.13;100.00
10606;BME280;5350;42.698;23.148;2023-09-19T04:10:38;93997.94;;;13.03;100.00
10606;BME280;5350;42.698;23.148;2023-09-19T04:13:06;94009.22;;;13.09;100.00
10606;BME280;5350;42.698;23.148;2023-09-19T04:15:33;94005.78;;;13.08;100.00
10606;BME280;5350;42.698;23.148;2023-09-19T04:17:59;94005.03;;;13.08;100.00
10606;BME280;5350;42.698;23.148;2023-09-19T04:20:27;94005.78;;;13.08;100.00
10606;BME280;5350;42.698;23.148;2023-09-19T04:22:55;93998.16;;;13.07;100.00
10606;BME280;5350;42.698;23.148;2023-09-19T04:25:22;93990.31;;;13.02;100.00
10606;BME280;5350;42.698;23.148;2023-09-19T04:27:48;94000.88;;;13.02;100.00
10606;BME280;5350;42.698;23.148;2023-09-19T04:30:15;93989.53;;;13.28;100.00
10606;BME280;5350;42.698;23.148;2023-09-19T04:32:42;93982.09;;;13.17;100.00
10606;BME280;5350;42.698;23.148;2023-09-19T04:35:10;93981.13;;;13.13;100.00
10606;BME280;5350;42.698;23.148;2023-09-19T04:37:39;93987.69;;;13.15;100.00
10606;BME280;5350;42.698;23.148;2023-09-19T04:40:08;93986.81;;;13.20;100.00
10606;BME280;5350;42.698;23.148;2023-09-19T04:42:39;93986.41;;;13.26;100.00
10606;BME280;5350;42.698;23.148;2023-09-19T04:45:07;93994.34;;;13.26;100.00
10606;BME280;5350;42.698;23.148;2023-09-19T04:47:35;93992.66;;;13.30;100.00
10606;BME280;5350;42.698;23.148;2023-09-19T04:50:07;93995.97;;;13.36;100.00
10606;BME280;5350;42.698;23.148;2023-09-19T04:52:40;93990.28;;;13.42;100.00
10606;BME280;5350;42.698;23.148;2023-09-19T04:55:09;93991.72;;;13.62;100.00
10606;BME280;5350;42.698;23.148;2023-09-19T04:57:42;93989.44;;;13.69;100.00
10606;BME280;5350;42.698;23.148;2023-09-19T05:00:11;93986.75;;;13.83;100.00
10606;BME280;5350;42.698;23.148;2023-09-19T05:02:40;93998.94;;;13.92;100.00
10606;BME280;5350;42.698;23.148;2023-09-19T05:05:07;93995.78;;;14.04;100.00
10606;BME280;5350;42.698;23.148;2023-09-19T05:07:34;94000.88;;;14.22;100.00
10606;BME280;5350;42.698;23.148;2023-09-19T05:10:03;94001.84;;;14.26;100.00
10606;BME280;5350;42.698;23.148;2023-09-19T05:12:33;94002.47;;;14.46;100.00
10606;BME280;5350;42.698;23.148;2023-09-19T05:15:00;94004.19;;;14.50;100.00
10606;BME280;5350;42.698;23.148;2023-09-19T05:17:26;94009.72;;;14.62;100.00
10606;BME280;5350;42.698;23.148;2023-09-19T05:19:53;94010.88;;;14.78;100.00
10606;BME280;5350;42.698;23.148;2023-09-19T05:22:20;94000.47;;;14.90;100.00
10606;BME280;5350;42.698;23.148;2023-09-19T05:24:46;93995.06;;;14.95;100.00
10606;BME280;5350;42.698;23.148;2023-09-19T05:27:15;93993.19;;;15.04;100.00
10606;BME280;5350;42.698;23.148;2023-09-19T05:29:43;93989.03;;;15.12;100.00
10606;BME280;5350;42.698;23.148;2023-09-19T05:32:09;93986.25;;;15.26;100.00
10606;BME280;5350;42.698;23.148;2023-09-19T05:34:37;93986.13;;;15.39;100.00
10606;BME280;5350;42.698;23.148;2023-09-19T05:37:03;93985.81;;;15.41;100.00
10606;BME280;5350;42.698;23.148;2023-09-19T05:39:32;93989.91;;;15.55;100.00
10606;BME280;5350;42.698;23.148;2023-09-19T05:41:59;93991.47;;;15.65;100.00
10606;BME280;5350;42.698;23.148;2023-09-19T05:44:27;93993.06;;;15.66;100.00
10606;BME280;5350;42.698;23.148;2023-09-19T05:46:54;93990.56;;;15.78;100.00
10606;BME280;5350;42.698;23.148;2023-09-19T05:49:23;93992.75;;;15.84;100.00
10606;BME280;5350;42.698;23.148;2023-09-19T05:51:49;93986.34;;;15.85;100.00
10606;BME280;5350;42.698;23.148;2023-09-19T05:54:19;93988.38;;;15.97;100.00
10606;BME280;5350;42.698;23.148;2023-09-19T05:56:46;93986.78;;;16.13;100.00
10606;BME280;5350;42.698;23.148;2023-09-19T05:59:14;93986.78;;;16.22;100.00
10606;BME280;5350;42.698;23.148;2023-09-19T06:01:43;93975.84;;;16.32;100.00
10606;BME280;5350;42.698;23.148;2023-09-19T06:04:09;93979.41;;;16.44;100.00
10606;BME280;5350;42.698;23.148;2023-09-19T06:06:36;93976.44;;;16.54;100.00
10606;BME280;5350;42.698;23.148;2023-09-19T06:09:06;93976.59;;;16.58;100.00
10606;BME280;5350;42.698;23.148;2023-09-19T06:11:33;93966.69;;;16.75;100.00
10606;BME280;5350;42.698;23.148;2023-09-19T06:14:00;93970.97;;;16.97;100.00
10606;BME280;5350;42.698;23.148;2023-09-19T06:16:27;93966.59;;;17.01;100.00
10606;BME280;5350;42.698;23.148;2023-09-19T06:18:55;93966.34;;;17.15;100.00
10606;BME280;5350;42.698;23.148;2023-09-19T06:21:22;93962.81;;;17.31;100.00
10606;BME280;5350;42.698;23.148;2023-09-19T06:23:49;93968.53;;;17.42;100.00
10606;BME280;5350;42.698;23.148;2023-09-19T06:26:16;93980.50;;;17.56;100.00
10606;BME280;5350;42.698;23.148;2023-09-19T06:28:42;93978.06;;;17.72;100.00
10606;BME280;5350;42.698;23.148;2023-09-19T06:31:09;93976.78;;;17.78;100.00
10606;BME280;5350;42.698;23.148;2023-09-19T06:33:36;93986.13;;;17.84;100.00
10606;BME280;5350;42.698;23.148;2023-09-19T06:36:06;93977.03;;;17.85;100.00
10606;BME280;5350;42.698;23.148;2023-09-19T06:38:33;93974.50;;;17.89;100.00
10606;BME280;5350;42.698;23.148;2023-09-19T06:41:01;93978.56;;;18.07;100.00
10606;BME280;5350;42.698;23.148;2023-09-19T06:43:30;93988.81;;;18.17;100.00
10606;BME280;5350;42.698;23.148;2023-09-19T06:45:58;93985.97;;;18.22;100.00
10606;BME280;5350;42.698;23.148;2023-09-19T06:48:25;93988.81;;;18.38;100.00
10606;BME280;5350;42.698;23.148;2023-09-19T06:50:53;93977.38;;;18.37;100.00
10606;BME280;5350;42.698;23.148;2023-09-19T06:53:21;93986.72;;;18.43;100.00
10606;BME280;5350;42.698;23.148;2023-09-19T06:55:49;93982.78;;;18.61;100.00
10606;BME280;5350;42.698;23.148;2023-09-19T06:58:16;93995.91;;;18.66;100.00
10606;BME280;5350;42.698;23.148;2023-09-19T07:00:43;93992.56;;;18.69;100.00
10606;BME280;5350;42.698;23.148;2023-09-19T07:03:10;93996.78;;;18.58;99.94
10606;BME280;5350;42.698;23.148;2023-09-19T07:05:37;93996.47;;;18.84;100.00
10606;BME280;5350;42.698;23.148;2023-09-19T07:08:05;94002.06;;;18.91;98.30
10606;BME280;5350;42.698;23.148;2023-09-19T07:10:34;93999.28;;;19.11;94.55
10606;BME280;5350;42.698;23.148;2023-09-19T07:13:02;93996.41;;;19.04;96.44
10606;BME280;5350;42.698;23.148;2023-09-19T07:15:30;94012.41;;;19.04;94.19
10606;BME280;5350;42.698;23.148;2023-09-19T07:17:58;94008.97;;;19.04;95.01
10606;BME280;5350;42.698;23.148;2023-09-19T07:20:26;94006.19;;;19.12;96.82
10606;BME280;5350;42.698;23.148;2023-09-19T07:22:57;94012.19;;;19.22;93.50
10606;BME280;5350;42.698;23.148;2023-09-19T07:25:25;94010.75;;;19.24;93.85
10606;BME280;5350;42.698;23.148;2023-09-19T07:27:55;93993.97;;;18.99;93.41
10606;BME280;5350;42.698;23.148;2023-09-19T07:30:22;94009.19;;;19.11;95.16
10606;BME280;5350;42.698;23.148;2023-09-19T07:32:48;94009.41;;;19.06;95.83
10606;BME280;5350;42.698;23.148;2023-09-19T07:35:15;94015.63;;;18.98;94.03
10606;BME280;5350;42.698;23.148;2023-09-19T07:37:42;94011.84;;;18.99;95.00
10606;BME280;5350;42.698;23.148;2023-09-19T07:40:10;94013.50;;;19.15;94.42
10606;BME280;5350;42.698;23.148;2023-09-19T07:42:37;94011.41;;;19.09;94.06
10606;BME280;5350;42.698;23.148;2023-09-19T07:45:08;93998.41;;;19.20;92.09
10606;BME280;5350;42.698;23.148;2023-09-19T07:47:39;94012.63;;;19.11;93.87
10606;BME280;5350;42.698;23.148;2023-09-19T07:50:06;94006.75;;;19.18;94.81
10606;BME280;5350;42.698;23.148;2023-09-19T07:52:33;94004.53;;;19.32;94.75
10606;BME280;5350;42.698;23.148;2023-09-19T07:55:00;94000.56;;;19.50;94.48
10606;BME280;5350;42.698;23.148;2023-09-19T07:57:26;93987.19;;;19.74;91.08
10606;BME280;5350;42.698;23.148;2023-09-19T07:59:54;93994.38;;;19.86;90.88
10606;BME280;5350;42.698;23.148;2023-09-19T08:02:22;93997.34;;;20.09;89.99
10606;BME280;5350;42.698;23.148;2023-09-19T08:04:49;93992.19;;;20.16;90.84
10606;BME280;5350;42.698;23.148;2023-09-19T08:07:17;93985.38;;;20.30;88.25
10606;BME280;5350;42.698;23.148;2023-09-19T08:09:44;93985.16;;;20.51;86.67
10606;BME280;5350;42.698;23.148;2023-09-19T08:12:14;93973.72;;;20.66;86.06
10606;BME280;5350;42.698;23.148;2023-09-19T08:14:40;93983.81;;;20.88;86.61
10606;BME280;5350;42.698;23.148;2023-09-19T08:17:07;93986.06;;;20.86;82.17
10606;BME280;5350;42.698;23.148;2023-09-19T08:19:35;93997.59;;;21.02;80.36
10606;BME280;5350;42.698;23.148;2023-09-19T08:22:07;93998.19;;;21.11;79.72
10606;BME280;5350;42.698;23.148;2023-09-19T08:24:36;93991.72;;;21.12;79.08
10606;BME280;5350;42.698;23.148;2023-09-19T08:27:04;93982.06;;;21.23;79.91
10606;BME280;5350;42.698;23.148;2023-09-19T08:29:34;93989.81;;;21.28;78.86
10606;BME280;5350;42.698;23.148;2023-09-19T08:32:01;93995.50;;;21.42;78.19
10606;BME280;5350;42.698;23.148;2023-09-19T08:34:27;93981.19;;;21.51;76.92
10606;BME280;5350;42.698;23.148;2023-09-19T08:36:59;93980.53;;;21.73;75.92
10606;BME280;5350;42.698;23.148;2023-09-19T08:39:27;93987.00;;;21.72;74.91
10606;BME280;5350;42.698;23.148;2023-09-19T08:42:00;93979.75;;;21.88;76.21
10606;BME280;5350;42.698;23.148;2023-09-19T08:44:28;93979.63;;;21.84;76.84
10606;BME280;5350;42.698;23.148;2023-09-19T08:47:01;93984.25;;;22.03;79.31
10606;BME280;5350;42.698;23.148;2023-09-19T08:49:38;93980.41;;;22.19;75.04
10606;BME280;5350;42.698;23.148;2023-09-19T08:52:18;93977.63;;;22.35;74.92
10606;BME280;5350;42.698;23.148;2023-09-19T08:54:48;93973.13;;;22.39;74.79
10606;BME280;5350;42.698;23.148;2023-09-19T08:57:19;93975.38;;;22.56;71.87
10606;BME280;5350;42.698;23.148;2023-09-19T08:59:48;93976.72;;;22.66;73.11
10606;BME280;5350;42.698;23.148;2023-09-19T09:02:15;93972.50;;;22.87;68.74
10606;BME280;5350;42.698;23.148;2023-09-19T09:04:45;93978.28;;;22.89;67.28
10606;BME280;5350;42.698;23.148;2023-09-19T09:07:14;93973.22;;;22.84;69.47
10606;BME280;5350;42.698;23.148;2023-09-19T09:09:42;93972.13;;;22.66;70.10
10606;BME280;5350;42.698;23.148;2023-09-19T09:12:11;93962.19;;;22.67;69.08
10606;BME280;5350;42.698;23.148;2023-09-19T09:14:39;93962.66;;;22.72;68.97
10606;BME280;5350;42.698;23.148;2023-09-19T09:17:06;93962.84;;;23.05;66.71
10606;BME280;5350;42.698;23.148;2023-09-19T09:19:33;93956.00;;;23.08;69.27
10606;BME280;5350;42.698;23.148;2023-09-19T09:22:07;93972.56;;;23.14;70.62
10606;BME280;5350;42.698;23.148;2023-09-19T09:24:36;93953.59;;;23.26;71.30
10606;BME280;5350;42.698;23.148;2023-09-19T09:27:06;93941.78;;;23.53;65.27
10606;BME280;5350;42.698;23.148;2023-09-19T09:29:44;93936.91;;;23.62;64.20
10606;BME280;5350;42.698;23.148;2023-09-19T09:32:23;93936.50;;;23.60;64.04
10606;BME280;5350;42.698;23.148;2023-09-19T09:34:51;93928.50;;;23.63;65.12
10606;BME280;5350;42.698;23.148;2023-09-19T09:37:19;93928.84;;;23.88;65.96
10606;BME280;5350;42.698;23.148;2023-09-19T09:39:51;93928.75;;;23.84;64.21
10606;BME280;5350;42.698;23.148;2023-09-19T09:42:34;93920.53;;;24.00;64.94
10606;BME280;5350;42.698;23.148;2023-09-19T09:45:17;93931.44;;;24.11;60.76
10606;BME280;5350;42.698;23.148;2023-09-19T09:47:53;93925.91;;;24.00;62.36
10606;BME280;5350;42.698;23.148;2023-09-19T09:50:26;93925.25;;;24.07;62.33
10606;BME280;5350;42.698;23.148;2023-09-19T09:52:55;93916.03;;;24.08;63.02
10606;BME280;5350;42.698;23.148;2023-09-19T09:55:56;93917.38;;;24.24;61.83
10606;BME280;5350;42.698;23.148;2023-09-19T09:58:23;93912.50;;;24.33;61.87
10606;BME280;5350;42.698;23.148;2023-09-19T10:00:54;93911.72;;;24.33;61.64
10606;BME280;5350;42.698;23.148;2023-09-19T10:03:31;93909.78;;;24.30;61.63
10606;BME280;5350;42.698;23.148;2023-09-19T10:06:00;93914.69;;;24.24;61.38
10606;BME280;5350;42.698;23.148;2023-09-19T10:08:27;93903.94;;;24.24;60.39
10606;BME280;5350;42.698;23.148;2023-09-19T10:10:57;93912.63;;;24.44;60.54
10606;BME280;5350;42.698;23.148;2023-09-19T10:13:32;93917.78;;;24.26;61.75
10606;BME280;5350;42.698;23.148;2023-09-19T10:16:06;93921.22;;;24.23;61.58
10606;BME280;5350;42.698;23.148;2023-09-19T10:18:36;93919.88;;;24.40;59.73
10606;BME280;5350;42.698;23.148;2023-09-19T10:21:04;93917.22;;;24.43;58.82
10606;BME280;5350;42.698;23.148;2023-09-19T10:23:33;93919.88;;;24.40;58.82
10606;BME280;5350;42.698;23.148;2023-09-19T10:26:04;93916.25;;;24.25;60.86
10606;BME280;5350;42.698;23.148;2023-09-19T10:28:32;93914.88;;;24.38;59.88
10606;BME280;5350;42.698;23.148;2023-09-19T10:31:01;93913.81;;;24.46;59.26
10606;BME280;5350;42.698;23.148;2023-09-19T10:33:35;93901.56;;;24.52;57.65
10606;BME280;5350;42.698;23.148;2023-09-19T10:36:05;93897.81;;;24.60;58.36
10606;BME280;5350;42.698;23.148;2023-09-19T10:38:33;93905.91;;;24.64;56.42
10606;BME280;5350;42.698;23.148;2023-09-19T10:41:03;93898.91;;;24.56;57.04
10606;BME280;5350;42.698;23.148;2023-09-19T10:43:32;93900.06;;;24.55;56.90
10606;BME280;5350;42.698;23.148;2023-09-19T10:46:02;93894.19;;;24.42;58.48
10606;BME280;5350;42.698;23.148;2023-09-19T10:48:29;93890.88;;;24.59;56.85
10606;BME280;5350;42.698;23.148;2023-09-19T10:51:02;93899.72;;;24.60;56.76
10606;BME280;5350;42.698;23.148;2023-09-19T10:53:41;93884.84;;;24.70;56.22
10606;BME280;5350;42.698;23.148;2023-09-19T10:56:17;93892.63;;;24.78;57.03
10606;BME280;5350;42.698;23.148;2023-09-19T10:58:45;93888.53;;;24.95;55.48
10606;BME280;5350;42.698;23.148;2023-09-19T11:01:12;93876.28;;;25.01;54.62
10606;BME280;5350;42.698;23.148;2023-09-19T11:03:40;93881.50;;;24.80;55.31
10606;BME280;5350;42.698;23.148;2023-09-19T11:06:12;93873.31;;;24.73;58.63
10606;BME280;5350;42.698;23.148;2023-09-19T11:08:59;93873.19;;;24.99;56.30
10606;BME280;5350;42.698;23.148;2023-09-19T11:11:50;93873.38;;;25.27;57.43
10606;BME280;5350;42.698;23.148;2023-09-19T11:17:42;93863.25;;;25.64;53.02
10606;BME280;5350;42.698;23.148;2023-09-19T11:20:24;93854.81;;;25.73;52.43
10606;BME280;5350;42.698;23.148;2023-09-19T11:23:18;93845.97;;;25.72;52.53
10606;BME280;5350;42.698;23.148;2023-09-19T11:25:49;93847.97;;;25.82;53.32
10606;BME280;5350;42.698;23.148;2023-09-19T11:28:39;93846.41;;;25.85;55.20
10606;BME280;5350;42.698;23.148;2023-09-19T11:31:41;93842.22;;;25.91;51.87
10606;BME280;5350;42.698;23.148;2023-09-19T11:34:41;93834.53;;;26.03;53.15
10606;BME280;5350;42.698;23.148;2023-09-19T11:40:36;93826.94;;;26.34;49.99
10606;BME280;5350;42.698;23.148;2023-09-19T11:43:28;93825.44;;;26.47;49.49
10606;BME280;5350;42.698;23.148;2023-09-19T11:46:07;93821.56;;;26.37;50.17
10606;BME280;5350;42.698;23.148;2023-09-19T11:48:40;93814.25;;;26.38;53.50
10606;BME280;5350;42.698;23.148;2023-09-19T11:51:14;93815.00;;;26.45;50.55
10606;BME280;5350;42.698;23.148;2023-09-19T11:53:52;93810.03;;;26.61;52.26
10606;BME280;5350;42.698;23.148;2023-09-19T11:56:20;93805.03;;;26.67;50.63
10606;BME280;5350;42.698;23.148;2023-09-19T11:58:50;93798.88;;;26.87;49.20
10606;BME280;5350;42.698;23.148;2023-09-19T12:01:23;93791.47;;;27.34;51.14
10606;BME280;5350;42.698;23.148;2023-09-19T12:03:53;93793.69;;;27.78;48.88
10606;BME280;5350;42.698;23.148;2023-09-19T12:06:23;93787.66;;;28.25;44.47
10606;BME280;5350;42.698;23.148;2023-09-19T12:08:50;93774.00;;;28.46;45.63
10606;BME280;5350;42.698;23.148;2023-09-19T12:11:19;93771.44;;;28.80;44.67
10606;BME280;5350;42.698;23.148;2023-09-19T12:13:48;93760.53;;;28.90;43.85
10606;BME280;5350;42.698;23.148;2023-09-19T12:16:16;93756.53;;;29.02;45.36
10606;BME280;5350;42.698;23.148;2023-09-19T12:18:49;93750.59;;;29.55;42.91
10606;BME280;5350;42.698;23.148;2023-09-19T12:21:27;93750.00;;;29.74;41.65
10606;BME280;5350;42.698;23.148;2023-09-19T12:24:04;93743.53;;;29.94;41.12
10606;BME280;5350;42.698;23.148;2023-09-19T12:26:38;93748.97;;;30.21;41.72
10606;BME280;5350;42.698;23.148;2023-09-19T12:29:11;93754.13;;;30.42;41.04
10606;BME280;5350;42.698;23.148;2023-09-19T12:31:50;93746.81;;;30.39;39.46
10606;BME280;5350;42.698;23.148;2023-09-19T12:34:21;93743.16;;;30.49;40.33
10606;BME280;5350;42.698;23.148;2023-09-19T12:36:48;93744.72;;;30.73;40.91
10606;BME280;5350;42.698;23.148;2023-09-19T12:39:24;93741.78;;;30.88;40.57
10606;BME280;5350;42.698;23.148;2023-09-19T12:41:52;93742.19;;;31.09;39.69
10606;BME280;5350;42.698;23.148;2023-09-19T12:44:20;93734.91;;;31.26;39.56
10606;BME280;5350;42.698;23.148;2023-09-19T12:46:50;93736.03;;;31.28;38.77
10606;BME280;5350;42.698;23.148;2023-09-19T12:49:17;93741.03;;;31.30;37.96
10606;BME280;5350;42.698;23.148;2023-09-19T12:51:47;93737.81;;;31.58;39.86
10606;BME280;5350;42.698;23.148;2023-09-19T12:54:14;93741.47;;;31.48;38.91
10606;BME280;5350;42.698;23.148;2023-09-19T12:56:42;93732.44;;;31.74;38.07
10606;BME280;5350;42.698;23.148;2023-09-19T12:59:11;93729.75;;;31.90;38.69
10606;BME280;5350;42.698;23.148;2023-09-19T13:01:39;93727.19;;;32.19;37.23
10606;BME280;5350;42.698;23.148;2023-09-19T13:04:11;93721.56;;;32.46;36.92
10606;BME280;5350;42.698;23.148;2023-09-19T13:06:40;93720.44;;;32.75;37.81
10606;BME280;5350;42.698;23.148;2023-09-19T13:09:10;93704.03;;;32.63;35.68
10606;BME280;5350;42.698;23.148;2023-09-19T13:11:38;93716.97;;;32.91;35.72
10606;BME280;5350;42.698;23.148;2023-09-19T13:14:20;93714.31;;;32.71;35.50
10606;BME280;5350;42.698;23.148;2023-09-19T13:16:58;93702.59;;;33.19;35.70
10606;BME280;5350;42.698;23.148;2023-09-19T13:19:40;93705.59;;;33.53;35.32